sensor_id;sensor_type;location;lat;lon;timestamp;P1;durP1;ratioP1;P2;durP2;ratioP2
28988;SDS011;16089;59.952;10.818;2023-06-19T00:02:00;7.70;;;5.90;;
28988;SDS011;16089;59.952;10.818;2023-06-19T00:04:27;10.10;;;6.03;;
28988;SDS011;16089;59.952;10.818;2023-06-19T00:06:53;7.00;;;5.13;;
28988;SDS011;16089;59.952;10.818;2023-06-19T00:09:21;7.65;;;5.65;;
28988;SDS011;16089;59.952;10.818;2023-06-19T00:11:47;9.77;;;5.88;;
28988;SDS011;16089;59.952;10.818;2023-06-19T00:14:14;7.70;;;5.63;;
28988;SDS011;16089;59.952;10.818;2023-06-19T00:16:40;7.70;;;5.70;;
28988;SDS011;16089;59.952;10.818;2023-06-19T00:19:07;8.10;;;6.10;;
28988;SDS011;16089;59.952;10.818;2023-06-19T00:21:33;7.07;;;5.45;;
28988;SDS011;16089;59.952;10.818;2023-06-19T00:23:59;7.97;;;6.05;;
28988;SDS011;16089;59.952;10.818;2023-06-19T00:26:27;9.82;;;6.10;;
28988;SDS011;16089;59.952;10.818;2023-06-19T00:28:53;8.23;;;5.65;;
28988;SDS011;16089;59.952;10.818;2023-06-19T00:31:19;8.15;;;6.18;;
28988;SDS011;16089;59.952;10.818;2023-06-19T00:33:46;8.23;;;6.10;;
28988;SDS011;16089;59.952;10.818;2023-06-19T00:36:14;7.85;;;5.78;;
28988;SDS011;16089;59.952;10.818;2023-06-19T00:38:40;9.13;;;6.03;;
28988;SDS011;16089;59.952;10.818;2023-06-19T00:41:07;8.55;;;5.53;;
28988;SDS011;16089;59.952;10.818;2023-06-19T00:43:34;8.07;;;5.65;;
28988;SDS011;16089;59.952;10.818;2023-06-19T00:46:01;8.40;;;6.00;;
28988;SDS011;16089;59.952;10.818;2023-06-19T00:48:28;8.50;;;5.72;;
28988;SDS011;16089;59.952;10.818;2023-06-19T00:50:54;7.60;;;5.55;;
28988;SDS011;16089;59.952;10.818;2023-06-19T00:53:21;7.38;;;5.55;;
28988;SDS011;16089;59.952;10.818;2023-06-19T00:55:48;8.02;;;5.90;;
28988;SDS011;16089;59.952;10.818;2023-06-19T00:58:16;8.88;;;6.28;;
28988;SDS011;16089;59.952;10.818;2023-06-19T01:00:44;8.10;;;6.22;;
28988;SDS011;16089;59.952;10.818;2023-06-19T01:03:10;8.57;;;6.35;;
28988;SDS011;16089;59.952;10.818;2023-06-19T01:05:37;9.10;;;6.35;;
28988;SDS011;16089;59.952;10.818;2023-06-19T01:08:04;8.95;;;6.53;;
28988;SDS011;16089;59.952;10.818;2023-06-19T01:10:33;10.88;;;6.38;;
28988;SDS011;16089;59.952;10.818;2023-06-19T01:13:07;8.05;;;6.20;;
28988;SDS011;16089;59.952;10.818;2023-06-19T01:15:35;9.27;;;6.68;;
28988;SDS011;16089;59.952;10.818;2023-06-19T01:18:03;8.88;;;6.57;;
28988;SDS011;16089;59.952;10.818;2023-06-19T01:20:30;8.73;;;6.85;;
28988;SDS011;16089;59.952;10.818;2023-06-19T01:23:00;9.63;;;6.93;;
28988;SDS011;16089;59.952;10.818;2023-06-19T01:25:30;10.38;;;7.30;;
28988;SDS011;16089;59.952;10.818;2023-06-19T01:27:57;9.95;;;7.65;;
28988;SDS011;16089;59.952;10.818;2023-06-19T01:30:23;10.38;;;7.38;;
28988;SDS011;16089;59.952;10.818;2023-06-19T01:32:50;10.68;;;7.55;;
28988;SDS011;16089;59.952;10.818;2023-06-19T01:35:19;8.82;;;7.15;;
28988;SDS011;16089;59.952;10.818;2023-06-19T01:37:45;10.02;;;7.47;;
28988;SDS011;16089;59.952;10.818;2023-06-19T01:40:15;9.93;;;7.45;;
28988;SDS011;16089;59.952;10.818;2023-06-19T01:42:41;11.23;;;7.80;;
28988;SDS011;16089;59.952;10.818;2023-06-19T01:45:09;11.13;;;7.68;;
28988;SDS011;16089;59.952;10.818;2023-06-19T01:47:35;9.07;;;6.80;;
28988;SDS011;16089;59.952;10.818;2023-06-19T01:50:01;8.40;;;6.93;;
28988;SDS011;16089;59.952;10.818;2023-06-19T01:52:28;9.27;;;7.25;;
28988;SDS011;16089;59.952;10.818;2023-06-19T01:54:54;9.43;;;7.38;;
28988;SDS011;16089;59.952;10.818;2023-06-19T01:57:22;9.38;;;7.00;;
28988;SDS011;16089;59.952;10.818;2023-06-19T01:59:48;8.95;;;6.88;;
28988;SDS011;16089;59.952;10.818;2023-06-19T02:02:14;10.27;;;7.15;;
28988;SDS011;16089;59.952;10.818;2023-06-19T02:04:41;8.88;;;6.13;;
28988;SDS011;16089;59.952;10.818;2023-06-19T02:07:07;7.50;;;5.57;;
28988;SDS011;16089;59.952;10.818;2023-06-19T02:09:33;6.68;;;5.05;;
28988;SDS011;16089;59.952;10.818;2023-06-19T02:12:00;8.30;;;5.97;;
28988;SDS011;16089;59.952;10.818;2023-06-19T02:14:27;6.72;;;4.88;;
28988;SDS011;16089;59.952;10.818;2023-06-19T02:16:54;7.40;;;5.18;;
28988;SDS011;16089;59.952;10.818;2023-06-19T02:19:20;6.95;;;5.03;;
28988;SDS011;16089;59.952;10.818;2023-06-19T02:21:46;7.22;;;4.40;;
28988;SDS011;16089;59.952;10.818;2023-06-19T02:24:12;7.75;;;4.70;;
28988;SDS011;16089;59.952;10.818;2023-06-19T02:26:39;5.95;;;4.43;;
28988;SDS011;16089;59.952;10.818;2023-06-19T02:29:05;7.00;;;4.88;;
28988;SDS011;16089;59.952;10.818;2023-06-19T02:31:33;6.28;;;4.68;;
28988;SDS011;16089;59.952;10.818;2023-06-19T02:33:59;5.40;;;4.38;;
28988;SDS011;16089;59.952;10.818;2023-06-19T02:36:26;6.45;;;5.15;;
28988;SDS011;16089;59.952;10.818;2023-06-19T02:38:52;7.22;;;5.00;;
28988;SDS011;16089;59.952;10.818;2023-06-19T02:41:18;5.70;;;4.38;;
28988;SDS011;16089;59.952;10.818;2023-06-19T02:43:45;6.10;;;4.55;;
28988;SDS011;16089;59.952;10.818;2023-06-19T02:46:11;6.07;;;4.50;;
28988;SDS011;16089;59.952;10.818;2023-06-19T02:48:39;6.00;;;4.43;;
28988;SDS011;16089;59.952;10.818;2023-06-19T02:51:05;5.80;;;4.30;;
28988;SDS011;16089;59.952;10.818;2023-06-19T02:53:33;5.15;;;4.05;;
28988;SDS011;16089;59.952;10.818;2023-06-19T02:55:59;5.28;;;4.10;;
28988;SDS011;16089;59.952;10.818;2023-06-19T02:58:25;4.88;;;3.75;;
28988;SDS011;16089;59.952;10.818;2023-06-19T03:00:52;5.82;;;4.00;;
28988;SDS011;16089;59.952;10.818;2023-06-19T03:03:19;5.78;;;4.43;;
28988;SDS011;16089;59.952;10.818;2023-06-19T03:05:47;6.40;;;4.55;;
28988;SDS011;16089;59.952;10.818;2023-06-19T03:08:13;5.85;;;4.20;;
28988;SDS011;16089;59.952;10.818;2023-06-19T03:10:39;5.40;;;4.10;;
28988;SDS011;16089;59.952;10.818;2023-06-19T03:13:06;5.93;;;4.50;;
28988;SDS011;16089;59.952;10.818;2023-06-19T03:15:32;6.60;;;4.97;;
28988;SDS011;16089;59.952;10.818;2023-06-19T03:17:58;5.55;;;4.57;;
28988;SDS011;16089;59.952;10.818;2023-06-19T03:20:28;5.97;;;4.45;;
28988;SDS011;16089;59.952;10.818;2023-06-19T03:22:56;6.13;;;4.45;;
28988;SDS011;16089;59.952;10.818;2023-06-19T03:25:22;5.55;;;4.57;;
28988;SDS011;16089;59.952;10.818;2023-06-19T03:27:48;7.88;;;5.18;;
28988;SDS011;16089;59.952;10.818;2023-06-19T03:30:15;7.85;;;4.72;;
28988;SDS011;16089;59.952;10.818;2023-06-19T03:32:43;5.78;;;4.80;;
28988;SDS011;16089;59.952;10.818;2023-06-19T03:35:09;6.00;;;4.82;;
28988;SDS011;16089;59.952;10.818;2023-06-19T03:37:36;7.13;;;4.75;;
28988;SDS011;16089;59.952;10.818;2023-06-19T03:40:04;5.82;;;4.78;;
28988;SDS011;16089;59.952;10.818;2023-06-19T03:42:31;7.15;;;5.82;;
28988;SDS011;16089;59.952;10.818;2023-06-19T03:44:57;8.57;;;6.10;;
28988;SDS011;16089;59.952;10.818;2023-06-19T03:47:24;8.23;;;6.65;;
28988;SDS011;16089;59.952;10.818;2023-06-19T03:49:50;9.18;;;6.70;;
28988;SDS011;16089;59.952;10.818;2023-06-19T03:52:16;9.32;;;7.68;;
28988;SDS011;16089;59.952;10.818;2023-06-19T03:54:42;10.88;;;8.27;;
28988;SDS011;16089;59.952;10.818;2023-06-19T03:57:10;11.80;;;9.13;;
28988;SDS011;16089;59.952;10.818;2023-06-19T03:59:36;10.00;;;8.27;;
28988;SDS011;16089;59.952;10.818;2023-06-19T04:02:03;11.82;;;9.27;;
28988;SDS011;16089;59.952;10.818;2023-06-19T04:04:29;13.95;;;9.45;;
28988;SDS011;16089;59.952;10.818;2023-06-19T04:06:56;12.27;;;9.70;;
28988;SDS011;16089;59.952;10.818;2023-06-19T04:09:23;11.18;;;9.00;;
28988;SDS011;16089;59.952;10.818;2023-06-19T04:11:49;13.05;;;10.32;;
28988;SDS011;16089;59.952;10.818;2023-06-19T04:14:17;12.30;;;9.68;;
28988;SDS011;16089;59.952;10.818;2023-06-19T04:16:43;13.00;;;10.68;;
28988;SDS011;16089;59.952;10.818;2023-06-19T04:19:09;13.40;;;10.52;;
28988;SDS011;16089;59.952;10.818;2023-06-19T04:21:36;13.65;;;11.07;;
28988;SDS011;16089;59.952;10.818;2023-06-19T04:24:02;12.90;;;10.82;;
28988;SDS011;16089;59.952;10.818;2023-06-19T04:26:30;13.45;;;11.25;;
28988;SDS011;16089;59.952;10.818;2023-06-19T04:28:56;15.32;;;11.13;;
28988;SDS011;16089;59.952;10.818;2023-06-19T04:31:23;15.00;;;11.52;;
28988;SDS011;16089;59.952;10.818;2023-06-19T04:33:51;13.35;;;10.45;;
28988;SDS011;16089;59.952;10.818;2023-06-19T04:36:18;13.40;;;11.13;;
28988;SDS011;16089;59.952;10.818;2023-06-19T04:38:45;12.48;;;10.27;;
28988;SDS011;16089;59.952;10.818;2023-06-19T04:41:11;13.18;;;10.80;;
28988;SDS011;16089;59.952;10.818;2023-06-19T04:43:38;13.15;;;11.00;;
28988;SDS011;16089;59.952;10.818;2023-06-19T04:46:06;13.95;;;11.93;;
28988;SDS011;16089;59.952;10.818;2023-06-19T04:48:34;13.95;;;11.23;;
28988;SDS011;16089;59.952;10.818;2023-06-19T04:51:01;14.90;;;12.20;;
28988;SDS011;16089;59.952;10.818;2023-06-19T04:53:28;13.27;;;11.50;;
28988;SDS011;16089;59.952;10.818;2023-06-19T04:55:54;15.80;;;12.73;;
28988;SDS011;16089;59.952;10.818;2023-06-19T04:58:20;15.43;;;11.73;;
28988;SDS011;16089;59.952;10.818;2023-06-19T05:00:47;15.75;;;12.45;;
28988;SDS011;16089;59.952;10.818;2023-06-19T05:03:16;15.30;;;11.90;;
28988;SDS011;16089;59.952;10.818;2023-06-19T05:05:44;17.02;;;13.57;;
28988;SDS011;16089;59.952;10.818;2023-06-19T05:08:12;12.85;;;10.55;;
28988;SDS011;16089;59.952;10.818;2023-06-19T05:10:38;14.77;;;12.55;;
28988;SDS011;16089;59.952;10.818;2023-06-19T05:13:05;14.50;;;12.55;;
28988;SDS011;16089;59.952;10.818;2023-06-19T05:15:31;16.63;;;13.07;;
28988;SDS011;16089;59.952;10.818;2023-06-19T05:17:57;13.50;;;11.52;;
28988;SDS011;16089;59.952;10.818;2023-06-19T05:20:24;15.82;;;12.38;;
28988;SDS011;16089;59.952;10.818;2023-06-19T05:22:51;15.18;;;12.93;;
28988;SDS011;16089;59.952;10.818;2023-06-19T05:25:18;15.70;;;12.48;;
28988;SDS011;16089;59.952;10.818;2023-06-19T05:27:44;15.68;;;12.88;;
28988;SDS011;16089;59.952;10.818;2023-06-19T05:30:11;16.85;;;12.98;;
28988;SDS011;16089;59.952;10.818;2023-06-19T05:32:37;15.75;;;12.80;;
28988;SDS011;16089;59.952;10.818;2023-06-19T05:35:04;16.45;;;12.45;;
28988;SDS011;16089;59.952;10.818;2023-06-19T05:37:30;16.88;;;13.00;;
28988;SDS011;16089;59.952;10.818;2023-06-19T05:39:58;15.32;;;11.88;;
28988;SDS011;16089;59.952;10.818;2023-06-19T05:42:24;18.67;;;12.77;;
28988;SDS011;16089;59.952;10.818;2023-06-19T05:44:51;15.63;;;12.52;;
28988;SDS011;16089;59.952;10.818;2023-06-19T05:47:17;15.27;;;12.63;;
28988;SDS011;16089;59.952;10.818;2023-06-19T05:49:45;17.50;;;13.07;;
28988;SDS011;16089;59.952;10.818;2023-06-19T05:52:12;16.30;;;13.30;;
28988;SDS011;16089;59.952;10.818;2023-06-19T05:54:38;16.23;;;12.77;;
28988;SDS011;16089;59.952;10.818;2023-06-19T05:57:06;16.08;;;12.70;;
28988;SDS011;16089;59.952;10.818;2023-06-19T05:59:32;16.90;;;12.35;;
28988;SDS011;16089;59.952;10.818;2023-06-19T06:01:59;21.55;;;13.52;;
28988;SDS011;16089;59.952;10.818;2023-06-19T06:04:25;15.50;;;12.43;;
28988;SDS011;16089;59.952;10.818;2023-06-19T06:06:52;19.73;;;14.27;;
28988;SDS011;16089;59.952;10.818;2023-06-19T06:09:18;18.75;;;14.75;;
28988;SDS011;16089;59.952;10.818;2023-06-19T06:11:45;28.48;;;21.85;;
28988;SDS011;16089;59.952;10.818;2023-06-19T06:14:13;19.98;;;14.93;;
28988;SDS011;16089;59.952;10.818;2023-06-19T06:16:40;17.20;;;13.77;;
28988;SDS011;16089;59.952;10.818;2023-06-19T06:19:06;17.92;;;13.95;;
28988;SDS011;16089;59.952;10.818;2023-06-19T06:21:32;17.48;;;13.75;;
28988;SDS011;16089;59.952;10.818;2023-06-19T06:23:59;19.88;;;14.68;;
28988;SDS011;16089;59.952;10.818;2023-06-19T06:26:26;18.20;;;13.75;;
28988;SDS011;16089;59.952;10.818;2023-06-19T06:28:53;17.60;;;14.43;;
28988;SDS011;16089;59.952;10.818;2023-06-19T06:31:21;16.95;;;13.82;;
28988;SDS011;16089;59.952;10.818;2023-06-19T06:33:48;19.23;;;14.02;;
28988;SDS011;16089;59.952;10.818;2023-06-19T06:36:14;19.33;;;14.55;;
28988;SDS011;16089;59.952;10.818;2023-06-19T06:38:41;19.67;;;15.25;;
28988;SDS011;16089;59.952;10.818;2023-06-19T06:41:07;22.73;;;14.85;;
28988;SDS011;16089;59.952;10.818;2023-06-19T06:43:34;19.20;;;15.43;;
28988;SDS011;16089;59.952;10.818;2023-06-19T06:46:00;19.23;;;15.18;;
28988;SDS011;16089;59.952;10.818;2023-06-19T06:48:28;19.15;;;15.80;;
28988;SDS011;16089;59.952;10.818;2023-06-19T06:50:55;21.88;;;16.50;;
28988;SDS011;16089;59.952;10.818;2023-06-19T06:53:26;20.95;;;16.77;;
28988;SDS011;16089;59.952;10.818;2023-06-19T06:55:53;21.55;;;16.02;;
28988;SDS011;16089;59.952;10.818;2023-06-19T06:58:19;20.00;;;15.93;;
28988;SDS011;16089;59.952;10.818;2023-06-19T07:00:45;21.88;;;16.45;;
28988;SDS011;16089;59.952;10.818;2023-06-19T07:03:12;21.30;;;15.52;;
28988;SDS011;16089;59.952;10.818;2023-06-19T07:05:40;22.48;;;17.45;;
28988;SDS011;16089;59.952;10.818;2023-06-19T07:08:06;24.10;;;17.65;;
28988;SDS011;16089;59.952;10.818;2023-06-19T07:10:32;22.30;;;17.58;;
28988;SDS011;16089;59.952;10.818;2023-06-19T07:12:59;27.60;;;19.20;;
28988;SDS011;16089;59.952;10.818;2023-06-19T07:15:25;23.90;;;18.52;;
28988;SDS011;16089;59.952;10.818;2023-06-19T07:17:52;22.67;;;17.95;;
28988;SDS011;16089;59.952;10.818;2023-06-19T07:20:18;24.90;;;18.55;;
28988;SDS011;16089;59.952;10.818;2023-06-19T07:22:46;24.23;;;18.95;;
28988;SDS011;16089;59.952;10.818;2023-06-19T07:25:12;25.35;;;18.00;;
28988;SDS011;16089;59.952;10.818;2023-06-19T07:27:40;25.00;;;18.77;;
28988;SDS011;16089;59.952;10.818;2023-06-19T07:30:06;27.90;;;19.85;;
28988;SDS011;16089;59.952;10.818;2023-06-19T07:32:33;25.10;;;19.73;;
28988;SDS011;16089;59.952;10.818;2023-06-19T07:34:59;25.67;;;19.80;;
28988;SDS011;16089;59.952;10.818;2023-06-19T07:37:26;27.73;;;19.75;;
28988;SDS011;16089;59.952;10.818;2023-06-19T07:39:54;29.63;;;18.23;;
28988;SDS011;16089;59.952;10.818;2023-06-19T07:42:21;29.60;;;18.40;;
28988;SDS011;16089;59.952;10.818;2023-06-19T07:44:47;28.38;;;19.13;;
28988;SDS011;16089;59.952;10.818;2023-06-19T07:47:14;25.88;;;19.17;;
28988;SDS011;16089;59.952;10.818;2023-06-19T07:49:41;26.35;;;19.27;;
28988;SDS011;16089;59.952;10.818;2023-06-19T07:52:07;26.17;;;19.20;;
28988;SDS011;16089;59.952;10.818;2023-06-19T07:54:35;25.25;;;19.08;;
28988;SDS011;16089;59.952;10.818;2023-06-19T07:57:03;30.67;;;19.67;;
28988;SDS011;16089;59.952;10.818;2023-06-19T07:59:29;24.83;;;19.50;;
28988;SDS011;16089;59.952;10.818;2023-06-19T08:01:56;27.70;;;20.25;;
28988;SDS011;16089;59.952;10.818;2023-06-19T08:04:22;25.95;;;19.40;;
28988;SDS011;16089;59.952;10.818;2023-06-19T08:06:48;24.70;;;18.15;;
28988;SDS011;16089;59.952;10.818;2023-06-19T08:09:15;25.52;;;16.90;;
28988;SDS011;16089;59.952;10.818;2023-06-19T08:11:41;24.98;;;17.33;;
28988;SDS011;16089;59.952;10.818;2023-06-19T08:14:09;27.00;;;17.80;;
28988;SDS011;16089;59.952;10.818;2023-06-19T08:16:35;23.10;;;17.23;;
28988;SDS011;16089;59.952;10.818;2023-06-19T08:19:01;24.45;;;17.63;;
28988;SDS011;16089;59.952;10.818;2023-06-19T08:21:28;23.88;;;17.20;;
28988;SDS011;16089;59.952;10.818;2023-06-19T08:23:55;22.80;;;17.55;;
28988;SDS011;16089;59.952;10.818;2023-06-19T08:26:21;23.65;;;17.15;;
28988;SDS011;16089;59.952;10.818;2023-06-19T08:28:48;21.90;;;17.38;;
28988;SDS011;16089;59.952;10.818;2023-06-19T08:31:15;27.25;;;18.50;;
28988;SDS011;16089;59.952;10.818;2023-06-19T08:33:42;27.58;;;18.25;;
28988;SDS011;16089;59.952;10.818;2023-06-19T08:36:10;22.60;;;17.35;;
28988;SDS011;16089;59.952;10.818;2023-06-19T08:38:36;24.02;;;17.95;;
28988;SDS011;16089;59.952;10.818;2023-06-19T08:41:03;24.05;;;17.35;;
28988;SDS011;16089;59.952;10.818;2023-06-19T08:43:29;24.27;;;17.00;;
28988;SDS011;16089;59.952;10.818;2023-06-19T08:45:59;22.95;;;17.48;;
28988;SDS011;16089;59.952;10.818;2023-06-19T08:48:31;25.77;;;17.25;;
28988;SDS011;16089;59.952;10.818;2023-06-19T08:51:00;23.45;;;17.05;;
28988;SDS011;16089;59.952;10.818;2023-06-19T08:53:26;23.45;;;16.95;;
28988;SDS011;16089;59.952;10.818;2023-06-19T08:55:54;21.38;;;16.65;;
28988;SDS011;16089;59.952;10.818;2023-06-19T08:58:22;22.60;;;16.17;;
28988;SDS011;16089;59.952;10.818;2023-06-19T09:00:49;21.25;;;15.40;;
28988;SDS011;16089;59.952;10.818;2023-06-19T09:03:19;18.95;;;14.65;;
28988;SDS011;16089;59.952;10.818;2023-06-19T09:05:47;17.63;;;14.13;;
28988;SDS011;16089;59.952;10.818;2023-06-19T09:08:15;17.30;;;13.77;;
28988;SDS011;16089;59.952;10.818;2023-06-19T09:10:41;18.27;;;13.30;;
28988;SDS011;16089;59.952;10.818;2023-06-19T09:13:08;18.65;;;13.90;;
28988;SDS011;16089;59.952;10.818;2023-06-19T09:15:35;19.20;;;13.93;;
28988;SDS011;16089;59.952;10.818;2023-06-19T09:18:03;18.25;;;13.35;;
28988;SDS011;16089;59.952;10.818;2023-06-19T09:20:29;21.33;;;14.30;;
28988;SDS011;16089;59.952;10.818;2023-06-19T09:22:58;18.23;;;14.30;;
28988;SDS011;16089;59.952;10.818;2023-06-19T09:25:24;22.15;;;14.27;;
28988;SDS011;16089;59.952;10.818;2023-06-19T09:27:52;18.58;;;13.43;;
28988;SDS011;16089;59.952;10.818;2023-06-19T09:30:18;18.73;;;13.02;;
28988;SDS011;16089;59.952;10.818;2023-06-19T09:32:44;18.30;;;13.27;;
28988;SDS011;16089;59.952;10.818;2023-06-19T09:35:11;21.25;;;13.63;;
28988;SDS011;16089;59.952;10.818;2023-06-19T09:37:38;18.67;;;14.55;;
28988;SDS011;16089;59.952;10.818;2023-06-19T09:40:07;19.85;;;12.50;;
28988;SDS011;16089;59.952;10.818;2023-06-19T09:42:36;16.85;;;13.38;;
28988;SDS011;16089;59.952;10.818;2023-06-19T09:45:03;21.77;;;14.52;;
28988;SDS011;16089;59.952;10.818;2023-06-19T09:47:30;21.40;;;14.20;;
28988;SDS011;16089;59.952;10.818;2023-06-19T09:49:57;24.90;;;14.68;;
28988;SDS011;16089;59.952;10.818;2023-06-19T09:52:24;20.23;;;13.57;;
28988;SDS011;16089;59.952;10.818;2023-06-19T09:54:50;18.77;;;14.10;;
28988;SDS011;16089;59.952;10.818;2023-06-19T09:57:18;19.90;;;14.82;;
28988;SDS011;16089;59.952;10.818;2023-06-19T09:59:45;21.20;;;14.60;;
28988;SDS011;16089;59.952;10.818;2023-06-19T10:02:12;18.23;;;13.63;;
28988;SDS011;16089;59.952;10.818;2023-06-19T10:04:43;19.02;;;14.23;;
28988;SDS011;16089;59.952;10.818;2023-06-19T10:07:17;19.77;;;13.25;;
28988;SDS011;16089;59.952;10.818;2023-06-19T10:09:54;19.25;;;13.57;;
28988;SDS011;16089;59.952;10.818;2023-06-19T10:12:22;18.75;;;13.80;;
28988;SDS011;16089;59.952;10.818;2023-06-19T10:14:48;18.25;;;13.27;;
28988;SDS011;16089;59.952;10.818;2023-06-19T10:17:16;19.35;;;14.40;;
28988;SDS011;16089;59.952;10.818;2023-06-19T10:19:48;18.20;;;13.57;;
28988;SDS011;16089;59.952;10.818;2023-06-19T10:22:19;19.75;;;12.95;;
28988;SDS011;16089;59.952;10.818;2023-06-19T10:24:48;19.52;;;14.50;;
28988;SDS011;16089;59.952;10.818;2023-06-19T10:27:20;18.20;;;13.43;;
28988;SDS011;16089;59.952;10.818;2023-06-19T10:29:51;17.38;;;13.38;;
28988;SDS011;16089;59.952;10.818;2023-06-19T10:32:18;17.30;;;14.02;;
28988;SDS011;16089;59.952;10.818;2023-06-19T10:34:45;18.10;;;13.75;;
28988;SDS011;16089;59.952;10.818;2023-06-19T10:37:11;18.65;;;12.93;;
28988;SDS011;16089;59.952;10.818;2023-06-19T10:39:38;16.98;;;13.30;;
28988;SDS011;16089;59.952;10.818;2023-06-19T10:42:05;17.73;;;13.75;;
28988;SDS011;16089;59.952;10.818;2023-06-19T10:44:31;18.40;;;14.10;;
28988;SDS011;16089;59.952;10.818;2023-06-19T10:46:59;17.77;;;14.05;;
28988;SDS011;16089;59.952;10.818;2023-06-19T10:49:26;19.42;;;14.95;;
28988;SDS011;16089;59.952;10.818;2023-06-19T10:51:53;20.52;;;15.07;;
28988;SDS011;16089;59.952;10.818;2023-06-19T10:54:23;19.33;;;14.88;;
28988;SDS011;16089;59.952;10.818;2023-06-19T10:56:50;19.77;;;14.07;;
28988;SDS011;16089;59.952;10.818;2023-06-19T10:59:16;18.52;;;14.10;;
28988;SDS011;16089;59.952;10.818;2023-06-19T11:01:44;19.40;;;14.40;;
28988;SDS011;16089;59.952;10.818;2023-06-19T11:04:12;19.35;;;14.27;;
28988;SDS011;16089;59.952;10.818;2023-06-19T11:06:39;17.50;;;12.73;;
28988;SDS011;16089;59.952;10.818;2023-06-19T11:09:06;20.13;;;13.65;;
28988;SDS011;16089;59.952;10.818;2023-06-19T11:11:36;20.45;;;14.77;;
28988;SDS011;16089;59.952;10.818;2023-06-19T11:14:03;18.58;;;14.20;;
28988;SDS011;16089;59.952;10.818;2023-06-19T11:16:29;17.83;;;14.00;;
28988;SDS011;16089;59.952;10.818;2023-06-19T11:18:56;17.25;;;13.25;;
28988;SDS011;16089;59.952;10.818;2023-06-19T11:21:30;16.35;;;12.57;;
28988;SDS011;16089;59.952;10.818;2023-06-19T11:23:58;17.17;;;12.95;;
28988;SDS011;16089;59.952;10.818;2023-06-19T11:26:25;24.15;;;13.98;;
28988;SDS011;16089;59.952;10.818;2023-06-19T11:28:52;22.98;;;15.05;;
28988;SDS011;16089;59.952;10.818;2023-06-19T11:31:24;18.92;;;13.88;;
28988;SDS011;16089;59.952;10.818;2023-06-19T11:33:55;19.88;;;13.38;;
28988;SDS011;16089;59.952;10.818;2023-06-19T11:36:21;19.98;;;12.95;;
28988;SDS011;16089;59.952;10.818;2023-06-19T11:38:49;18.77;;;13.18;;
28988;SDS011;16089;59.952;10.818;2023-06-19T11:41:24;19.42;;;13.93;;
28988;SDS011;16089;59.952;10.818;2023-06-19T11:43:51;17.73;;;13.27;;
28988;SDS011;16089;59.952;10.818;2023-06-19T11:46:27;19.88;;;13.30;;
28988;SDS011;16089;59.952;10.818;2023-06-19T11:48:54;18.38;;;12.82;;
28988;SDS011;16089;59.952;10.818;2023-06-19T11:51:21;19.38;;;13.52;;
28988;SDS011;16089;59.952;10.818;2023-06-19T11:53:49;19.63;;;13.77;;
28988;SDS011;16089;59.952;10.818;2023-06-19T11:56:15;17.00;;;12.88;;
28988;SDS011;16089;59.952;10.818;2023-06-19T11:58:41;16.65;;;12.52;;
28988;SDS011;16089;59.952;10.818;2023-06-19T12:01:10;16.27;;;12.30;;
28988;SDS011;16089;59.952;10.818;2023-06-19T12:03:36;17.45;;;12.38;;
28988;SDS011;16089;59.952;10.818;2023-06-19T12:06:02;17.13;;;12.65;;
28988;SDS011;16089;59.952;10.818;2023-06-19T12:08:29;15.48;;;12.82;;
28988;SDS011;16089;59.952;10.818;2023-06-19T12:10:56;16.77;;;12.57;;
28988;SDS011;16089;59.952;10.818;2023-06-19T12:13:23;23.90;;;16.98;;
28988;SDS011;16089;59.952;10.818;2023-06-19T12:15:49;27.35;;;17.95;;
28988;SDS011;16089;59.952;10.818;2023-06-19T12:18:15;17.73;;;12.82;;
28988;SDS011;16089;59.952;10.818;2023-06-19T12:20:42;17.15;;;12.65;;
28988;SDS011;16089;59.952;10.818;2023-06-19T12:23:08;27.63;;;13.73;;
28988;SDS011;16089;59.952;10.818;2023-06-19T12:25:34;17.67;;;12.57;;
28988;SDS011;16089;59.952;10.818;2023-06-19T12:28:02;17.10;;;12.55;;
28988;SDS011;16089;59.952;10.818;2023-06-19T12:30:33;17.15;;;12.52;;
28988;SDS011;16089;59.952;10.818;2023-06-19T12:32:59;15.98;;;12.23;;
28988;SDS011;16089;59.952;10.818;2023-06-19T12:35:26;16.02;;;12.43;;
28988;SDS011;16089;59.952;10.818;2023-06-19T12:37:52;19.60;;;12.90;;
28988;SDS011;16089;59.952;10.818;2023-06-19T12:40:20;17.20;;;12.80;;
28988;SDS011;16089;59.952;10.818;2023-06-19T12:42:46;17.33;;;12.32;;
28988;SDS011;16089;59.952;10.818;2023-06-19T12:45:16;17.77;;;12.40;;
28988;SDS011;16089;59.952;10.818;2023-06-19T12:47:42;16.92;;;11.85;;
28988;SDS011;16089;59.952;10.818;2023-06-19T12:50:08;18.17;;;12.10;;
28988;SDS011;16089;59.952;10.818;2023-06-19T12:52:36;16.25;;;11.50;;
28988;SDS011;16089;59.952;10.818;2023-06-19T12:55:03;15.07;;;11.95;;
28988;SDS011;16089;59.952;10.818;2023-06-19T12:57:29;15.18;;;10.88;;
28988;SDS011;16089;59.952;10.818;2023-06-19T12:59:55;15.13;;;10.93;;
28988;SDS011;16089;59.952;10.818;2023-06-19T13:02:23;15.10;;;11.13;;
28988;SDS011;16089;59.952;10.818;2023-06-19T13:04:49;16.02;;;10.25;;
28988;SDS011;16089;59.952;10.818;2023-06-19T13:07:16;15.13;;;10.60;;
28988;SDS011;16089;59.952;10.818;2023-06-19T13:09:42;13.20;;;10.98;;
28988;SDS011;16089;59.952;10.818;2023-06-19T13:12:09;16.52;;;12.02;;
28988;SDS011;16089;59.952;10.818;2023-06-19T13:14:35;17.55;;;11.85;;
28988;SDS011;16089;59.952;10.818;2023-06-19T13:17:03;19.90;;;11.50;;
28988;SDS011;16089;59.952;10.818;2023-06-19T13:19:30;13.25;;;10.10;;
28988;SDS011;16089;59.952;10.818;2023-06-19T13:21:57;15.77;;;11.07;;
28988;SDS011;16089;59.952;10.818;2023-06-19T13:24:23;16.15;;;10.45;;
28988;SDS011;16089;59.952;10.818;2023-06-19T13:26:51;14.02;;;10.50;;
28988;SDS011;16089;59.952;10.818;2023-06-19T13:29:17;14.55;;;11.27;;
28988;SDS011;16089;59.952;10.818;2023-06-19T13:31:43;14.07;;;11.07;;
28988;SDS011;16089;59.952;10.818;2023-06-19T13:34:10;15.85;;;11.40;;
28988;SDS011;16089;59.952;10.818;2023-06-19T13:36:38;14.18;;;10.52;;
28988;SDS011;16089;59.952;10.818;2023-06-19T13:39:05;13.80;;;9.82;;
28988;SDS011;16089;59.952;10.818;2023-06-19T13:41:31;15.80;;;10.35;;
28988;SDS011;16089;59.952;10.818;2023-06-19T13:43:59;12.80;;;9.70;;
28988;SDS011;16089;59.952;10.818;2023-06-19T13:46:25;15.20;;;9.75;;
28988;SDS011;16089;59.952;10.818;2023-06-19T13:48:52;15.13;;;10.38;;
28988;SDS011;16089;59.952;10.818;2023-06-19T13:51:18;19.45;;;9.95;;
28988;SDS011;16089;59.952;10.818;2023-06-19T13:53:46;16.35;;;10.48;;
28988;SDS011;16089;59.952;10.818;2023-06-19T13:56:12;11.98;;;9.65;;
28988;SDS011;16089;59.952;10.818;2023-06-19T13:58:39;13.05;;;9.82;;
28988;SDS011;16089;59.952;10.818;2023-06-19T14:01:05;14.25;;;9.73;;
28988;SDS011;16089;59.952;10.818;2023-06-19T14:03:32;15.68;;;10.77;;
28988;SDS011;16089;59.952;10.818;2023-06-19T14:05:58;14.38;;;10.02;;
28988;SDS011;16089;59.952;10.818;2023-06-19T14:08:25;14.88;;;10.75;;
28988;SDS011;16089;59.952;10.818;2023-06-19T14:10:52;11.80;;;9.73;;
28988;SDS011;16089;59.952;10.818;2023-06-19T14:13:19;14.10;;;9.57;;
28988;SDS011;16089;59.952;10.818;2023-06-19T14:15:45;16.15;;;9.48;;